createdAt,value
2023-01-11T00:00:51.103Z,28.66
2023-01-11T00:01:51.162Z,28.70
2023-01-11T00:02:51.074Z,28.72
2023-01-11T00:03:51.060Z,28.65
2023-01-11T00:04:51.173Z,28.66
2023-01-11T00:05:51.022Z,28.70
2023-01-11T00:06:51.011Z,28.73
2023-01-11T00:07:50.984Z,28.67
2023-01-11T00:08:50.971Z,28.65
2023-01-11T00:09:50.948Z,28.72
2023-01-11T00:10:50.931Z,28.68
2023-01-11T00:11:50.919Z,28.70
2023-01-11T00:12:50.919Z,28.74
2023-01-11T00:13:50.876Z,28.67
2023-01-11T00:14:50.877Z,28.67
2023-01-11T00:15:50.934Z,28.76
2023-01-11T00:16:50.828Z,28.67
2023-01-11T00:17:50.810Z,28.69
2023-01-11T00:18:50.812Z,28.67
2023-01-11T00:19:50.782Z,28.72
2023-01-11T00:20:50.768Z,28.71
2023-01-11T00:21:50.745Z,28.70
2023-01-11T00:22:50.720Z,28.70
2023-01-11T00:23:50.750Z,28.68
2023-01-11T00:24:50.696Z,28.68
2023-01-11T00:25:50.689Z,28.71
2023-01-11T00:26:50.687Z,28.67
2023-01-11T00:27:50.654Z,28.72
2023-01-11T00:28:50.650Z,28.69
2023-01-11T00:29:50.628Z,28.72
2023-01-11T00:30:50.616Z,28.77
2023-01-11T00:31:50.638Z,28.70
2023-01-11T00:32:50.576Z,28.72
2023-01-11T00:33:50.558Z,28.71
2023-01-11T00:34:50.531Z,28.74
2023-01-11T00:35:50.536Z,28.75
2023-01-11T00:36:50.500Z,28.68
2023-01-11T00:37:50.509Z,28.74
2023-01-11T00:38:50.507Z,28.75
2023-01-11T00:39:50.459Z,28.75
2023-01-11T00:40:50.462Z,28.67
2023-01-11T00:41:50.433Z,28.72
2023-01-11T00:42:50.403Z,28.71
2023-01-11T00:43:50.401Z,28.70
2023-01-11T00:44:50.385Z,28.74
2023-01-11T00:45:50.402Z,28.72
2023-01-11T00:46:50.347Z,28.72
2023-01-11T00:47:50.341Z,28.74
2023-01-11T00:48:50.301Z,28.74
2023-01-11T00:49:50.293Z,28.70
2023-01-11T00:50:50.283Z,28.74
2023-01-11T00:51:50.258Z,28.78
2023-01-11T00:52:50.268Z,28.77
2023-01-11T00:53:50.234Z,28.77
2023-01-11T00:54:50.211Z,28.72
2023-01-11T00:55:50.213Z,28.78
2023-01-11T00:56:50.198Z,28.75
2023-01-11T00:57:50.177Z,28.79
2023-01-11T00:58:50.163Z,28.79
2023-01-11T00:59:50.139Z,28.77
2023-01-11T01:00:50.119Z,28.72
2023-01-11T01:01:50.128Z,28.75
2023-01-11T01:02:50.176Z,28.77
2023-01-11T01:03:50.094Z,28.69
2023-01-11T01:04:50.038Z,28.78
2023-01-11T01:05:50.036Z,28.77
2023-01-11T01:06:50.109Z,28.84
2023-01-11T01:07:49.990Z,28.75
2023-01-11T01:08:49.972Z,28.77
2023-01-11T01:09:49.964Z,28.85
2023-01-11T01:10:49.935Z,28.75
2023-01-11T01:11:49.927Z,28.77
2023-01-11T01:12:49.913Z,28.78
2023-01-11T01:13:49.890Z,28.77
2023-01-11T01:14:49.859Z,28.81
2023-01-11T01:15:49.877Z,28.81
2023-01-11T01:16:49.832Z,28.81
2023-01-11T01:17:49.836Z,28.78
2023-01-11T01:18:49.818Z,28.79
2023-01-11T01:19:49.788Z,28.79
2023-01-11T01:20:49.770Z,28.79
2023-01-11T01:21:49.764Z,28.78
2023-01-11T01:22:49.763Z,28.77
2023-01-11T01:23:49.727Z,28.77
2023-01-11T01:24:49.709Z,28.74
2023-01-11T01:25:49.693Z,28.78
2023-01-11T01:26:49.662Z,28.79
2023-01-11T01:27:49.651Z,28.78
2023-01-11T01:28:49.646Z,28.79
2023-01-11T01:29:49.615Z,28.78
2023-01-11T01:30:49.626Z,28.79
2023-01-11T01:31:49.600Z,28.79
2023-01-11T01:32:49.570Z,28.77
2023-01-11T01:33:49.553Z,28.83
2023-01-11T01:34:49.539Z,28.81
2023-01-11T01:35:49.532Z,28.78
2023-01-11T01:36:49.497Z,28.81
2023-01-11T01:37:49.497Z,28.74
2023-01-11T01:38:49.467Z,28.78
2023-01-11T01:39:49.452Z,28.75
2023-01-11T01:40:49.425Z,28.79
2023-01-11T01:41:49.412Z,28.79
2023-01-11T01:42:49.412Z,28.75
2023-01-11T01:43:49.365Z,28.78
2023-01-11T01:44:49.362Z,28.79
2023-01-11T01:45:49.349Z,28.78
2023-01-11T01:46:49.311Z,28.81
2023-01-11T01:47:49.308Z,28.78
2023-01-11T01:48:49.271Z,28.79
2023-01-11T01:49:49.269Z,28.78
2023-01-11T01:50:49.239Z,28.76
2023-01-11T01:51:49.204Z,28.77
2023-01-11T01:52:49.181Z,28.81
2023-01-11T01:53:49.180Z,28.78
2023-01-11T01:54:49.145Z,28.83
2023-01-11T01:55:49.122Z,28.77
2023-01-11T01:56:49.116Z,28.82
2023-01-11T01:57:49.080Z,28.83
2023-01-11T01:58:49.073Z,28.79
2023-01-11T01:59:49.049Z,28.81
2023-01-11T02:00:49.036Z,28.84
2023-01-11T02:01:49.076Z,28.78
2023-01-11T02:02:49.143Z,28.81
2023-01-11T02:03:48.989Z,28.85
2023-01-11T02:04:48.957Z,28.79
2023-01-11T02:05:48.954Z,28.78
2023-01-11T02:06:49.020Z,28.79
2023-01-11T02:07:48.949Z,28.82
2023-01-11T02:08:48.950Z,28.83
2023-01-11T02:09:48.885Z,28.79
2023-01-11T02:10:48.858Z,28.77
2023-01-11T02:11:48.832Z,28.82
2023-01-11T02:12:48.821Z,28.82
2023-01-11T02:13:48.804Z,28.81
2023-01-11T02:14:48.774Z,28.82
2023-01-11T02:15:48.824Z,28.82
2023-01-11T02:16:48.733Z,28.78
2023-01-11T02:17:48.740Z,28.79
2023-01-11T02:18:48.702Z,28.79
2023-01-11T02:19:48.677Z,28.84
2023-01-11T02:20:48.660Z,28.83
2023-01-11T02:21:48.646Z,28.82
2023-01-11T02:22:48.651Z,28.81
2023-01-11T02:23:48.620Z,28.81
2023-01-11T02:24:48.576Z,28.87
2023-01-11T02:25:48.565Z,28.83
2023-01-11T02:26:48.548Z,28.84
2023-01-11T02:29:48.495Z,28.81
2023-01-11T03:13:47.613Z,28.82
2023-01-11T03:14:47.605Z,28.83
2023-01-11T03:15:47.635Z,28.85
2023-01-11T03:16:47.584Z,28.84
2023-01-11T03:17:47.540Z,28.82
2023-01-11T03:18:47.540Z,28.82
2023-01-11T03:19:47.517Z,28.82
2023-01-11T03:20:47.487Z,28.83
2023-01-11T03:21:47.474Z,28.81
2023-01-11T03:22:47.444Z,28.82
2023-01-11T03:23:47.417Z,28.83
2023-01-11T03:24:47.444Z,28.85
2023-01-11T03:25:47.378Z,28.83
2023-01-11T03:26:47.368Z,28.82
2023-01-11T03:27:47.350Z,28.82
2023-01-11T03:28:47.327Z,28.84
2023-01-11T03:29:47.331Z,28.83
2023-01-11T03:30:47.292Z,28.85
2023-01-11T03:31:47.274Z,28.82
2023-01-11T03:32:47.233Z,28.79
2023-01-11T03:33:47.202Z,28.85
2023-01-11T03:34:47.190Z,28.85
2023-01-11T03:35:47.170Z,28.86
2023-01-11T03:36:47.137Z,28.82
2023-01-11T03:37:47.123Z,28.89
2023-01-11T03:38:47.099Z,28.84
2023-01-11T03:39:47.099Z,28.79
2023-01-11T03:40:47.063Z,28.82
2023-01-11T03:41:47.036Z,28.83
2023-01-11T03:42:47.044Z,28.83
2023-01-11T03:43:47.017Z,28.87
2023-01-11T03:44:46.999Z,28.85
2023-01-11T03:45:46.972Z,28.88
2023-01-11T03:46:47.009Z,28.83
2023-01-11T03:47:46.934Z,28.83
2023-01-11T03:48:46.914Z,28.83
2023-01-11T03:49:46.887Z,28.85
2023-01-11T03:50:46.875Z,28.85
2023-01-11T03:51:46.859Z,28.81
2023-01-11T03:52:46.832Z,28.82
2023-01-11T03:53:46.820Z,28.82
2023-01-11T03:54:46.792Z,28.81
2023-01-11T03:55:46.783Z,28.83
2023-01-11T03:56:46.754Z,28.85
2023-01-11T03:57:46.730Z,28.89
2023-01-11T03:58:46.718Z,28.87
2023-01-11T03:59:46.705Z,28.85
2023-01-11T04:00:46.723Z,28.87
2023-01-11T04:01:46.652Z,28.84
2023-01-11T04:02:46.631Z,28.83
2023-01-11T04:03:46.632Z,28.85
2023-01-11T04:04:46.594Z,28.85
2023-01-11T04:05:46.579Z,28.84
2023-01-11T04:06:46.639Z,28.81
2023-01-11T04:07:46.538Z,28.87
2023-01-11T04:08:46.568Z,28.85
2023-01-11T04:09:46.473Z,28.85
2023-01-11T04:10:46.471Z,28.89
2023-01-11T04:11:46.442Z,28.82
2023-01-11T04:12:46.422Z,28.89
2023-01-11T04:13:46.403Z,28.87
2023-01-11T04:14:46.377Z,28.91
2023-01-11T04:15:46.384Z,28.82
2023-01-11T04:16:46.342Z,28.87
2023-01-11T04:17:46.309Z,28.85
2023-01-11T04:18:46.304Z,28.85
2023-01-11T04:19:46.286Z,28.81
2023-01-11T04:20:46.264Z,28.83
2023-01-11T04:21:46.248Z,28.85
2023-01-11T04:22:46.211Z,28.85
2023-01-11T04:23:46.182Z,28.84
2023-01-11T04:24:46.182Z,28.81
2023-01-11T04:25:46.149Z,28.85
2023-01-11T04:26:46.127Z,28.87
2023-01-11T04:27:46.144Z,28.87
2023-01-11T04:28:46.088Z,28.85
2023-01-11T04:29:46.054Z,28.87
2023-01-11T04:30:46.071Z,28.85
2023-01-11T04:31:46.109Z,28.87
2023-01-11T04:32:46.001Z,28.85
2023-01-11T04:33:45.974Z,28.83
2023-01-11T04:34:45.960Z,28.89
2023-01-11T04:35:45.942Z,28.83
2023-01-11T04:36:45.916Z,28.82
2023-01-11T04:37:45.894Z,28.88
2023-01-11T04:38:45.879Z,28.87
2023-01-11T04:39:45.846Z,28.86
2023-01-11T04:40:45.835Z,28.87
2023-01-11T04:41:45.810Z,28.83
2023-01-11T04:42:45.784Z,28.83
2023-01-11T04:43:45.778Z,28.89
2023-01-11T04:44:45.740Z,28.89
2023-01-11T04:45:45.743Z,28.85
2023-01-11T04:46:45.711Z,28.86
2023-01-11T04:47:45.681Z,28.89
2023-01-11T04:48:45.676Z,28.86
2023-01-11T04:49:45.653Z,28.87
2023-01-11T04:50:45.677Z,28.88
2023-01-11T04:51:45.600Z,28.89
2023-01-11T04:52:45.601Z,28.86
2023-01-11T04:53:45.562Z,28.90
2023-01-11T04:54:45.554Z,28.88
2023-01-11T04:55:45.528Z,28.85
2023-01-11T04:56:45.515Z,28.87
2023-01-11T04:57:45.487Z,28.88
2023-01-11T04:58:45.457Z,28.82
2023-01-11T04:59:45.467Z,28.89
2023-01-11T05:00:45.457Z,28.89
2023-01-11T05:01:45.402Z,28.89
2023-01-11T05:02:45.391Z,28.89
2023-01-11T05:03:45.497Z,28.90
2023-01-11T05:04:45.368Z,28.85
2023-01-11T05:05:45.337Z,28.89
2023-01-11T05:06:45.371Z,28.83
2023-01-11T05:07:45.297Z,28.88
2023-01-11T05:08:45.287Z,28.85
2023-01-11T05:09:45.282Z,28.86
2023-01-11T05:10:45.248Z,28.88
2023-01-11T05:11:45.243Z,28.90
2023-01-11T05:12:45.218Z,28.86
2023-01-11T05:13:45.228Z,28.88
2023-01-11T05:14:45.200Z,28.89
2023-01-11T05:15:45.186Z,28.94
2023-01-11T05:16:45.236Z,28.90
2023-01-11T11:31:27.131Z,23.41
2023-01-11T11:32:27.077Z,23.48
2023-01-11T11:33:27.039Z,23.48
2023-01-11T11:34:27.008Z,23.48
2023-01-11T11:35:27.007Z,23.54
2023-01-11T11:36:26.966Z,23.54
2023-01-11T11:37:26.964Z,23.48
2023-01-11T11:38:26.908Z,23.50
2023-01-11T11:39:26.901Z,23.45
2023-01-11T11:40:26.874Z,23.43
2023-01-11T11:41:26.844Z,23.45
2023-01-11T11:42:26.822Z,23.45
2023-01-11T11:43:26.793Z,23.41
2023-01-11T11:51:27.087Z,23.36
2023-01-11T12:18:25.789Z,23.31
2023-01-11T12:19:25.791Z,23.36
2023-01-11T12:20:25.764Z,23.34
2023-01-11T12:21:25.736Z,23.34
2023-01-11T12:22:25.694Z,23.32
2023-01-11T12:23:25.695Z,23.29
2023-01-11T12:24:26.686Z,23.37
2023-01-11T12:25:25.675Z,23.28
2023-01-11T12:26:25.593Z,23.10
2023-01-11T12:27:25.594Z,23.17
2023-01-11T12:28:25.541Z,23.07
2023-01-11T12:29:25.529Z,23.02
2023-01-11T12:30:25.488Z,23.00
2023-01-11T12:31:25.458Z,23.01
2023-01-11T12:32:25.428Z,22.97
2023-01-11T12:33:25.416Z,22.87
2023-01-11T12:34:25.376Z,22.84
2023-01-11T12:35:25.346Z,22.89
2023-01-11T12:36:25.328Z,22.90
2023-01-11T12:37:25.298Z,22.93
2023-01-11T12:38:25.266Z,22.98
2023-01-11T12:39:25.232Z,23.02
2023-01-11T12:40:25.195Z,23.00
2023-01-11T12:41:25.175Z,23.02
2023-01-11T19:37:17.649Z,28.64
2023-01-11T19:38:17.635Z,28.65
2023-01-11T19:39:17.612Z,28.64
2023-01-11T19:40:17.620Z,28.60
2023-01-11T19:41:17.585Z,28.62
2023-01-11T19:42:17.594Z,28.65
2023-01-11T19:43:17.562Z,28.62
2023-01-11T19:44:17.559Z,28.62
2023-01-11T19:45:17.559Z,28.62
2023-01-11T19:46:30.711Z,28.68
2023-01-11T19:48:17.514Z,28.64
2023-01-11T19:49:17.495Z,28.63
2023-01-11T19:50:17.485Z,28.68
2023-01-11T19:51:17.478Z,28.64
2023-01-11T19:52:17.451Z,28.68
2023-01-11T19:53:17.428Z,28.68
2023-01-11T19:54:17.418Z,28.68
2023-01-11T19:55:17.401Z,28.66
2023-01-11T19:56:17.390Z,28.66
2023-01-11T19:57:17.386Z,28.65
2023-01-11T19:58:17.353Z,28.68
2023-01-11T19:59:17.368Z,28.68
2023-01-11T20:00:17.353Z,28.71
2023-01-11T20:01:17.417Z,28.68
2023-01-11T20:02:17.333Z,28.71
2023-01-11T20:03:17.298Z,28.65
2023-01-11T20:04:17.304Z,28.69
2023-01-11T20:05:17.269Z,28.74
2023-01-11T20:06:17.262Z,28.72
2023-01-11T20:07:17.229Z,28.73
2023-01-11T20:08:17.217Z,28.71
2023-01-11T20:09:17.200Z,28.70
2023-01-11T20:10:17.203Z,28.75
2023-01-11T20:11:17.194Z,28.70
2023-01-11T20:12:17.179Z,28.75
2023-01-11T20:13:17.157Z,28.78
2023-01-11T20:14:17.142Z,28.78
2023-01-11T20:15:17.115Z,28.72
2023-01-11T20:16:17.176Z,28.77
2023-01-11T20:17:17.083Z,28.71
2023-01-11T20:18:17.070Z,28.78
2023-01-11T20:19:17.049Z,28.77
2023-01-11T20:20:17.045Z,28.75
2023-01-11T20:21:17.040Z,28.82
2023-01-11T20:22:17.016Z,28.82
2023-01-11T20:23:17.001Z,28.82
2023-01-11T20:24:16.999Z,28.79
2023-01-11T20:25:16.978Z,28.79
2023-01-11T20:26:16.986Z,28.80
2023-01-11T20:27:16.982Z,28.80
2023-01-11T20:28:16.934Z,28.82
2023-01-11T20:29:16.941Z,28.85
2023-01-11T20:30:16.927Z,28.80
2023-01-11T20:31:16.966Z,28.88
2023-01-11T20:32:39.038Z,28.85
2023-01-11T20:34:16.834Z,28.83
2023-01-11T20:35:16.815Z,28.88
2023-01-11T20:36:16.827Z,28.83
2023-01-11T20:37:16.800Z,28.89
2023-01-11T20:38:16.775Z,28.89
2023-01-11T20:39:16.758Z,28.88
2023-01-11T20:40:16.786Z,28.88
2023-01-11T20:41:16.723Z,28.86
2023-01-11T20:42:16.733Z,28.88
2023-01-11T20:43:16.706Z,28.88
2023-01-11T20:44:16.678Z,28.90
2023-01-11T20:45:16.649Z,28.87
2023-01-11T20:46:16.683Z,28.89
2023-01-11T20:47:16.620Z,28.89
2023-01-11T20:48:16.594Z,28.85
2023-01-11T20:49:16.596Z,28.86
2023-01-11T20:50:16.562Z,28.89
2023-01-11T20:51:16.549Z,28.87
2023-01-11T20:52:16.536Z,28.89
2023-01-11T20:53:16.503Z,28.89
2023-01-11T20:54:16.501Z,28.89
2023-01-11T20:55:16.478Z,28.95
2023-01-11T20:56:16.453Z,28.89
2023-01-11T20:57:16.455Z,28.93
2023-01-11T20:58:16.434Z,28.92
2023-01-11T20:59:16.466Z,28.90
2023-01-11T21:00:16.399Z,28.89
2023-01-11T21:01:16.389Z,28.96
2023-01-11T21:02:16.381Z,28.95
2023-01-11T21:03:16.354Z,28.95
2023-01-11T21:04:16.338Z,28.97
2023-01-11T21:05:16.343Z,28.96
2023-01-11T21:06:16.305Z,28.95
2023-01-11T21:07:16.292Z,28.97
2023-01-11T21:08:16.281Z,28.97
2023-01-11T21:09:16.264Z,28.92
2023-01-11T21:10:16.256Z,28.96
2023-01-11T21:11:16.242Z,28.95
2023-01-11T21:12:16.235Z,28.93
2023-01-11T21:13:16.207Z,28.97
2023-01-11T21:14:16.204Z,29.00
